createdAt,value
2023-03-11T00:01:12.072Z,1.00
2023-03-11T00:03:41.089Z,1.00
2023-03-11T00:06:09.061Z,1.17
2023-03-11T00:08:37.071Z,1.17
2023-03-11T00:11:07.943Z,1.27
2023-03-11T00:13:36.858Z,1.30
2023-03-11T00:16:07.467Z,1.30
2023-03-11T00:18:35.835Z,1.10
2023-03-11T00:21:03.701Z,1.20
2023-03-11T00:23:32.606Z,1.27
2023-03-11T00:26:03.067Z,1.10
2023-03-11T00:28:34.048Z,1.00
2023-03-11T00:31:03.397Z,1.00
2023-03-11T00:33:33.080Z,1.10
2023-03-11T00:36:01.118Z,1.53
2023-03-11T00:38:29.354Z,1.00
2023-03-11T00:40:57.924Z,0.83
2023-03-11T00:43:26.392Z,1.20
2023-03-11T00:45:54.342Z,1.07
2023-03-11T00:48:22.731Z,0.97
2023-03-11T00:50:52.223Z,1.10
2023-03-11T00:53:20.585Z,0.90
2023-03-11T00:55:48.417Z,1.00
2023-03-11T00:58:16.872Z,0.90
2023-03-11T01:00:51.056Z,0.97
2023-03-11T01:03:18.983Z,1.00
2023-03-11T01:05:47.133Z,0.93
2023-03-11T01:08:16.797Z,1.00
2023-03-11T01:10:44.732Z,0.90
2023-03-11T01:13:13.856Z,1.03
2023-03-11T01:15:41.981Z,0.90
2023-03-11T01:18:10.011Z,1.10
2023-03-11T01:20:39.036Z,1.07
2023-03-11T01:23:07.974Z,1.20
2023-03-11T01:25:38.090Z,0.97
2023-03-11T01:28:06.532Z,1.13
2023-03-11T01:30:36.531Z,1.23
2023-03-11T01:33:05.552Z,0.90
2023-03-11T01:35:35.376Z,1.10
2023-03-11T01:38:03.374Z,0.90
2023-03-11T01:40:33.524Z,0.97
2023-03-11T01:43:08.457Z,1.10
2023-03-11T01:45:42.744Z,1.00
2023-03-11T01:48:14.933Z,1.00
2023-03-11T01:50:46.248Z,0.90
2023-03-11T01:53:16.556Z,0.77
2023-03-11T01:55:48.211Z,1.10
2023-03-11T01:58:21.958Z,0.87
2023-03-11T02:00:50.044Z,1.00
2023-03-11T02:03:23.193Z,1.00
2023-03-11T02:05:53.764Z,0.93
2023-03-11T02:08:21.763Z,1.20
2023-03-11T02:10:52.794Z,0.80
2023-03-11T02:13:24.996Z,1.30
2023-03-11T02:15:53.297Z,1.40
2023-03-11T02:18:22.264Z,0.80
2023-03-11T02:20:56.150Z,1.10
2023-03-11T02:23:31.787Z,2.10
2023-03-11T02:26:06.985Z,1.10
2023-03-11T02:28:39.029Z,0.90
2023-03-11T02:31:07.321Z,1.00
2023-03-11T02:33:38.217Z,1.20
2023-03-11T02:36:36.017Z,1.23
2023-03-11T02:39:05.956Z,1.13
2023-03-11T02:41:37.829Z,1.20
2023-03-11T02:44:09.246Z,1.17
2023-03-11T02:46:38.178Z,1.23
2023-03-11T02:49:07.811Z,1.13
2023-03-11T02:51:38.018Z,1.30
2023-03-11T02:54:07.513Z,1.10
2023-03-11T02:56:37.362Z,1.00
2023-03-11T02:59:05.594Z,1.30
2023-03-11T03:01:33.794Z,1.10
2023-03-11T03:04:02.300Z,1.10
2023-03-11T03:06:34.022Z,1.10
2023-03-11T03:09:06.127Z,1.30
2023-03-11T03:11:36.756Z,1.10
2023-03-11T03:14:07.271Z,1.20
2023-03-11T03:16:37.452Z,0.97
2023-03-11T03:19:05.468Z,1.00
2023-03-11T03:21:34.437Z,1.03
2023-03-11T03:24:03.818Z,1.00
2023-03-11T03:26:35.865Z,1.00
2023-03-11T03:29:05.237Z,1.30
2023-03-11T03:31:33.444Z,1.07
2023-03-11T03:34:02.909Z,1.30
2023-03-11T03:36:31.386Z,1.00
2023-03-11T03:39:04.895Z,1.10
2023-03-11T03:41:39.124Z,1.33
2023-03-11T03:44:10.441Z,1.37
2023-03-11T03:46:40.179Z,1.20
2023-03-11T03:49:11.191Z,1.20
2023-03-11T03:51:39.923Z,1.27
2023-03-11T03:54:13.112Z,1.20
2023-03-11T03:56:42.753Z,1.13
2023-03-11T03:59:14.195Z,1.07
2023-03-11T04:01:48.812Z,1.33
2023-03-11T04:04:18.986Z,1.30
2023-03-11T04:06:46.992Z,1.20
2023-03-11T04:09:16.038Z,1.33
2023-03-11T04:11:46.384Z,1.90
2023-03-11T04:14:16.164Z,1.10
2023-03-11T04:16:51.786Z,1.27
2023-03-11T04:19:20.133Z,1.20
2023-03-11T04:21:50.628Z,1.23
2023-03-11T04:24:19.598Z,1.27
2023-03-11T04:26:56.165Z,1.13
2023-03-11T04:29:24.462Z,1.30
2023-03-11T04:31:57.544Z,1.43
2023-03-11T04:34:26.747Z,1.67
2023-03-11T04:36:57.120Z,1.67
2023-03-11T04:39:30.842Z,2.30
2023-03-11T04:42:03.554Z,1.80
2023-03-11T04:44:33.909Z,1.93
2023-03-11T04:47:02.007Z,1.43
2023-03-11T04:49:30.532Z,1.90
2023-03-11T04:52:00.388Z,1.53
2023-03-11T04:54:28.823Z,1.47
2023-03-11T04:56:57.558Z,2.50
2023-03-11T04:59:28.519Z,2.10
2023-03-11T05:01:56.568Z,2.00
2023-03-11T05:04:24.901Z,1.70
2023-03-11T05:06:54.545Z,1.83
2023-03-11T05:09:26.491Z,1.93
2023-03-11T05:11:54.997Z,1.90
2023-03-11T05:14:23.330Z,1.83
2023-03-11T05:16:54.277Z,2.50
2023-03-11T05:19:35.010Z,2.57
2023-03-11T05:22:12.493Z,2.03
2023-03-11T05:24:40.912Z,2.87
2023-03-11T05:27:08.837Z,2.73
2023-03-11T05:29:39.215Z,2.60
2023-03-11T05:32:12.042Z,3.13
2023-03-11T05:34:40.269Z,3.10
2023-03-11T05:37:09.269Z,2.90
2023-03-11T05:39:40.377Z,2.50
2023-03-11T05:42:25.962Z,2.17
2023-03-11T05:44:58.434Z,2.17
2023-03-11T05:47:31.952Z,2.67
2023-03-11T05:50:00.272Z,2.70
2023-03-11T05:52:30.600Z,2.70
2023-03-11T05:54:59.722Z,2.20
2023-03-11T05:57:29.710Z,2.50
2023-03-11T05:59:58.022Z,2.20
2023-03-11T06:02:26.179Z,2.60
2023-03-11T06:04:57.752Z,2.33
2023-03-11T06:07:26.327Z,2.67
2023-03-11T06:09:55.759Z,2.00
2023-03-11T06:12:24.167Z,2.60
2023-03-11T06:15:16.657Z,2.60
2023-03-11T06:17:44.734Z,2.50
2023-03-11T06:20:15.841Z,2.73
2023-03-11T06:22:45.197Z,3.17
2023-03-11T06:25:13.991Z,2.50
2023-03-11T06:27:44.553Z,2.30
2023-03-11T06:30:14.477Z,2.60
2023-03-11T06:32:51.225Z,2.37
2023-03-11T06:35:21.631Z,2.57
2023-03-11T06:37:49.612Z,2.10
2023-03-11T06:40:18.667Z,1.80
2023-03-11T06:42:47.551Z,1.30
2023-03-11T06:45:15.751Z,1.30
2023-03-11T06:47:45.031Z,1.47
2023-03-11T06:50:14.919Z,1.47
2023-03-11T06:52:44.669Z,1.17
2023-03-11T06:55:15.309Z,1.33
2023-03-11T06:57:44.698Z,1.43
2023-03-11T07:00:15.183Z,1.20
2023-03-11T07:02:51.174Z,1.40
2023-03-11T07:05:19.956Z,1.30
2023-03-11T07:07:51.050Z,1.50
2023-03-11T07:10:21.502Z,1.20
2023-03-11T07:12:52.127Z,1.13
2023-03-11T07:15:20.758Z,1.00
2023-03-11T07:17:49.555Z,1.00
2023-03-11T07:20:19.094Z,1.27
2023-03-11T07:22:51.434Z,1.47
2023-03-11T07:25:19.941Z,1.70
2023-03-11T07:27:49.599Z,1.50
2023-03-11T07:30:19.260Z,1.53
2023-03-11T07:32:48.655Z,2.10
2023-03-11T07:35:17.659Z,2.63
2023-03-11T07:37:46.022Z,2.33
2023-03-11T07:40:18.668Z,1.90
2023-03-11T07:42:47.054Z,2.53
2023-03-11T07:45:15.760Z,2.57
2023-03-11T07:47:45.260Z,2.20
2023-03-11T07:50:17.293Z,2.20
2023-03-11T07:52:50.115Z,2.30
2023-03-11T07:55:21.951Z,1.47
2023-03-11T07:57:51.657Z,1.97
2023-03-11T08:00:21.567Z,2.10
2023-03-11T08:02:55.254Z,2.67
2023-03-11T08:05:23.302Z,1.93
2023-03-11T08:07:51.811Z,2.40
2023-03-11T08:10:21.763Z,2.27
2023-03-11T08:12:54.480Z,2.10
2023-03-11T08:15:25.056Z,2.10
2023-03-11T08:17:53.591Z,2.00
2023-03-11T08:20:21.747Z,2.13
2023-03-11T08:22:57.913Z,1.77
2023-03-11T08:25:30.999Z,2.13
2023-03-11T08:27:59.168Z,2.87
2023-03-11T08:30:29.736Z,2.50
2023-03-11T08:32:57.780Z,1.93
2023-03-11T08:35:26.205Z,2.53
2023-03-11T08:37:55.289Z,2.97
2023-03-11T08:40:25.174Z,2.40
2023-03-11T08:42:56.536Z,2.50
2023-03-11T08:45:25.582Z,2.23
2023-03-11T08:47:53.622Z,2.70
2023-03-11T08:50:22.211Z,2.10
2023-03-11T08:52:50.671Z,2.97
2023-03-11T08:55:25.958Z,2.43
2023-03-11T08:57:56.120Z,2.13
2023-03-11T09:00:25.058Z,2.27
2023-03-11T09:02:53.112Z,2.03
2023-03-11T09:05:21.463Z,2.10
2023-03-11T09:07:49.626Z,2.37
2023-03-11T09:10:18.268Z,1.77
2023-03-11T09:12:46.215Z,1.70
2023-03-11T09:15:15.588Z,2.10
2023-03-11T09:17:43.857Z,2.27
2023-03-11T09:20:15.163Z,1.90
2023-03-11T09:22:45.703Z,2.27
2023-03-11T09:25:14.447Z,1.97
2023-03-11T09:27:42.492Z,1.43
2023-03-11T09:30:12.086Z,2.07
2023-03-11T09:32:41.741Z,1.53
2023-03-11T09:35:10.933Z,1.83
2023-03-11T09:37:39.142Z,2.30
2023-03-11T09:40:08.139Z,1.60
2023-03-11T09:42:43.914Z,2.10
2023-03-11T09:45:17.869Z,1.40
2023-03-11T09:48:01.154Z,1.50
2023-03-11T09:50:32.271Z,1.83
2023-03-11T09:53:11.753Z,1.40
2023-03-11T09:55:44.216Z,2.10
2023-03-11T09:58:20.692Z,1.47
2023-03-11T10:00:52.016Z,1.53
2023-03-11T10:03:39.264Z,1.57
2023-03-11T10:06:15.732Z,1.40
2023-03-11T10:08:47.695Z,1.40
2023-03-11T10:11:32.771Z,1.90
2023-03-11T10:14:14.070Z,2.33
2023-03-11T10:16:52.063Z,1.20
2023-03-11T10:19:43.085Z,1.70
2023-03-11T10:22:18.258Z,1.30
2023-03-11T10:25:05.030Z,1.33
2023-03-11T10:27:41.875Z,1.50
2023-03-11T10:30:20.531Z,1.60
2023-03-11T10:32:56.140Z,1.57
2023-03-11T10:35:33.531Z,1.40
2023-03-11T10:38:06.981Z,1.10
2023-03-11T10:40:37.895Z,1.27
2023-03-11T10:43:13.556Z,1.60
2023-03-11T10:45:44.823Z,1.43
2023-03-11T10:48:16.074Z,1.33
2023-03-11T10:50:50.958Z,1.67
2023-03-11T10:53:21.307Z,1.40
2023-03-11T10:55:52.550Z,1.63
2023-03-11T10:58:23.629Z,1.23
2023-03-11T11:01:08.583Z,0.87
2023-03-11T11:03:37.537Z,1.10
2023-03-11T11:06:19.433Z,1.30
2023-03-11T11:08:47.817Z,1.07
2023-03-11T11:11:22.665Z,1.10
2023-03-11T11:13:58.776Z,1.20
2023-03-11T11:16:28.482Z,0.90
2023-03-11T11:19:03.252Z,1.13
2023-03-11T11:21:36.130Z,1.10
2023-03-11T11:24:15.906Z,1.20
2023-03-11T11:27:04.342Z,1.30
2023-03-11T11:29:36.098Z,1.17
2023-03-11T11:32:26.501Z,1.27
2023-03-11T11:34:59.653Z,1.30
2023-03-11T11:37:31.862Z,1.43
2023-03-11T11:40:12.247Z,1.23
2023-03-11T11:42:44.637Z,1.40
2023-03-11T11:45:17.818Z,1.10
2023-03-11T11:47:52.300Z,1.40
2023-03-11T11:50:28.960Z,1.20
2023-03-11T11:53:03.883Z,1.73
2023-03-11T11:55:34.608Z,1.60
2023-03-11T11:58:05.534Z,0.97
2023-03-11T12:00:45.257Z,1.10
2023-03-11T12:03:35.785Z,1.67
2023-03-11T12:06:13.395Z,1.43
2023-03-11T12:08:54.036Z,1.40
2023-03-11T12:11:27.985Z,1.40
2023-03-11T12:14:08.600Z,1.70
2023-03-11T12:16:45.137Z,1.23
2023-03-11T12:19:27.973Z,1.20
2023-03-11T12:22:43.014Z,1.07
2023-03-11T12:25:25.542Z,1.03
2023-03-11T12:28:09.314Z,1.20
2023-03-11T12:30:45.307Z,1.70
2023-03-11T12:33:18.598Z,1.10
2023-03-11T12:35:54.074Z,1.37
2023-03-11T12:38:31.190Z,2.03
2023-03-11T12:41:09.466Z,1.33
2023-03-11T12:44:24.951Z,1.47
2023-03-11T12:47:06.300Z,1.40
2023-03-11T12:49:37.981Z,1.60
2023-03-11T12:52:21.800Z,1.20
2023-03-11T12:55:11.168Z,1.20
2023-03-11T12:57:55.340Z,1.20
2023-03-11T13:00:32.743Z,1.70
2023-03-11T13:03:17.390Z,1.50
2023-03-11T13:06:06.487Z,1.37
2023-03-11T13:08:45.107Z,1.47
2023-03-11T13:11:45.713Z,1.50
2023-03-11T13:14:30.066Z,1.10
2023-03-11T13:17:18.601Z,1.10
2023-03-11T13:19:52.574Z,1.80
2023-03-11T13:23:00.787Z,1.23
2023-03-11T13:25:33.010Z,1.57
2023-03-11T13:28:25.980Z,1.60
2023-03-11T13:31:11.564Z,1.20
2023-03-11T13:33:51.080Z,1.20
2023-03-11T13:36:40.846Z,2.03
2023-03-11T13:39:40.509Z,1.33
2023-03-11T13:42:19.123Z,1.50
2023-03-11T13:44:49.022Z,1.70
2023-03-11T13:47:20.051Z,1.40
2023-03-11T13:49:53.821Z,1.13
2023-03-11T13:52:27.669Z,1.30
2023-03-11T13:55:02.640Z,1.47
2023-03-11T13:57:34.069Z,1.73
2023-03-11T14:00:17.128Z,1.60
2023-03-11T14:02:54.304Z,1.43
2023-03-11T14:05:26.491Z,1.33
2023-03-11T14:07:55.203Z,1.40
2023-03-11T14:10:26.906Z,1.47
2023-03-11T14:13:09.451Z,0.90
2023-03-11T14:15:47.366Z,1.20
2023-03-11T14:18:38.799Z,1.10
2023-03-11T14:21:14.995Z,1.47
2023-03-11T14:23:45.314Z,1.30
2023-03-11T14:26:16.277Z,1.10
2023-03-11T14:28:49.671Z,1.23
2023-03-11T14:31:32.367Z,1.07
2023-03-11T14:34:07.119Z,1.73
2023-03-11T14:36:43.354Z,1.63
2023-03-11T14:39:27.967Z,1.20
2023-03-11T14:42:00.611Z,1.30
2023-03-11T14:44:30.467Z,1.13
2023-03-11T14:47:07.973Z,1.53
2023-03-11T14:49:41.740Z,1.50
2023-03-11T14:52:17.954Z,1.20
2023-03-11T14:54:49.467Z,1.20
2023-03-11T14:57:26.306Z,1.13
2023-03-11T14:59:56.685Z,1.07
2023-03-11T15:02:46.295Z,1.77
2023-03-11T15:05:21.669Z,0.80
2023-03-11T15:07:53.027Z,1.20
2023-03-11T15:10:21.406Z,1.20
2023-03-11T15:12:49.871Z,1.17
2023-03-11T15:15:27.313Z,1.30
2023-03-11T15:17:56.658Z,1.20
2023-03-11T15:20:31.042Z,1.27
2023-03-11T15:23:01.760Z,1.67
2023-03-11T15:25:33.461Z,1.57
2023-03-11T15:28:25.440Z,1.67
2023-03-11T15:31:18.660Z,1.33
2023-03-11T15:33:51.596Z,1.17
2023-03-11T15:36:35.974Z,1.40
2023-03-11T15:39:17.461Z,1.00
2023-03-11T15:41:48.318Z,1.10
2023-03-11T15:44:25.554Z,1.37
2023-03-11T15:46:55.722Z,0.93
2023-03-11T15:49:25.241Z,1.10
2023-03-11T15:51:54.548Z,1.30
2023-03-11T15:54:23.713Z,1.00
2023-03-11T15:56:51.905Z,1.10
2023-03-11T15:59:19.829Z,1.07
2023-03-11T16:01:49.534Z,0.90
2023-03-11T16:04:19.190Z,1.27
2023-03-11T16:06:59.500Z,1.30
2023-03-11T16:09:36.402Z,1.80
2023-03-11T16:12:16.255Z,1.30
2023-03-11T16:14:44.271Z,1.70
2023-03-11T16:17:14.841Z,1.60
2023-03-11T16:19:43.084Z,1.13
2023-03-11T16:22:19.792Z,1.80
2023-03-11T16:24:55.149Z,1.47
2023-03-11T16:27:23.627Z,1.10
2023-03-11T16:29:51.445Z,1.30
2023-03-11T16:32:20.018Z,1.33
2023-03-11T16:34:48.219Z,1.27
2023-03-11T16:37:21.467Z,1.20
2023-03-11T16:39:50.778Z,1.30
2023-03-11T16:42:23.889Z,1.33
2023-03-11T16:44:52.196Z,1.10
2023-03-11T16:47:20.298Z,1.20
2023-03-11T16:49:53.501Z,1.57
2023-03-11T16:52:23.032Z,1.30
2023-03-11T16:54:52.715Z,1.30
2023-03-11T16:57:20.644Z,1.80
2023-03-11T16:59:49.317Z,1.57
2023-03-11T17:02:18.453Z,1.20
2023-03-11T17:04:49.510Z,1.40
2023-03-11T17:07:20.218Z,1.87
2023-03-11T17:09:50.870Z,1.80
2023-03-11T17:12:23.111Z,1.30
2023-03-11T17:14:51.356Z,1.30
2023-03-11T17:17:23.216Z,1.40
2023-03-11T17:19:51.152Z,1.50
2023-03-11T17:22:20.018Z,1.43
2023-03-11T17:24:49.936Z,1.20
2023-03-11T17:27:20.759Z,1.50
2023-03-11T17:29:49.544Z,1.67
2023-03-11T17:32:17.840Z,1.57
2023-03-11T17:34:46.356Z,1.50
2023-03-11T17:37:14.267Z,1.57
2023-03-11T17:39:47.285Z,1.67
2023-03-11T17:42:25.949Z,1.70
2023-03-11T17:44:58.554Z,1.70
2023-03-11T17:47:27.107Z,1.70
2023-03-11T17:49:55.424Z,1.80
2023-03-11T17:52:24.637Z,1.40
2023-03-11T17:54:53.512Z,1.67
2023-03-11T17:57:23.079Z,1.60
2023-03-11T17:59:52.677Z,1.50
2023-03-11T18:02:22.965Z,1.93
2023-03-11T18:04:53.985Z,1.50
2023-03-11T18:07:23.917Z,1.90
2023-03-11T18:09:54.914Z,2.07
2023-03-11T18:12:25.296Z,1.60
2023-03-11T18:14:53.763Z,2.00
2023-03-11T18:17:24.281Z,2.43
2023-03-11T18:19:52.156Z,2.40
2023-03-11T18:22:21.320Z,2.40
2023-03-11T18:24:51.704Z,2.30
2023-03-11T18:27:19.737Z,2.20
2023-03-11T18:29:49.203Z,2.10
2023-03-11T18:32:17.671Z,1.87
2023-03-11T18:34:45.933Z,2.57
2023-03-11T18:37:14.767Z,2.40
2023-03-11T18:39:43.706Z,2.03
2023-03-11T18:42:12.021Z,2.47
2023-03-11T18:44:40.103Z,2.57
2023-03-11T18:47:10.258Z,2.40
2023-03-11T18:49:40.888Z,2.83
2023-03-11T18:52:09.085Z,2.60
2023-03-11T18:54:38.716Z,2.97
2023-03-11T18:57:09.272Z,3.20
2023-03-11T18:59:39.884Z,3.03
2023-03-11T19:02:10.807Z,2.93
2023-03-11T19:04:38.669Z,3.40
2023-03-11T19:07:07.157Z,3.37
2023-03-11T19:09:35.103Z,3.17
2023-03-11T19:12:05.142Z,2.80
2023-03-11T19:14:36.490Z,2.93
2023-03-11T19:17:08.010Z,3.10
2023-03-11T19:19:37.768Z,3.30
2023-03-11T19:22:05.781Z,3.97
2023-03-11T19:24:33.827Z,4.87
2023-03-11T19:27:01.814Z,3.30
2023-03-11T19:29:32.076Z,2.93
2023-03-11T19:32:02.977Z,4.43
2023-03-11T19:34:31.717Z,5.63
2023-03-11T19:37:01.373Z,6.67
2023-03-11T19:39:29.616Z,6.50
2023-03-11T19:41:58.892Z,5.03
2023-03-11T19:44:27.400Z,5.73
2023-03-11T19:46:55.317Z,4.50
2023-03-11T19:49:25.783Z,3.53
2023-03-11T19:51:55.974Z,3.20
2023-03-11T19:54:27.983Z,3.10
2023-03-11T19:56:55.890Z,3.20
2023-03-11T19:59:23.821Z,2.70
2023-03-11T20:01:51.833Z,2.47
2023-03-11T20:04:22.159Z,3.20
2023-03-11T20:06:50.255Z,3.30
2023-03-11T20:09:18.474Z,2.97
2023-03-11T20:11:48.120Z,3.10
2023-03-11T20:14:16.308Z,3.07
2023-03-11T20:16:45.478Z,3.10
2023-03-11T20:19:14.019Z,3.70
2023-03-11T20:21:46.021Z,3.30
2023-03-11T20:24:14.511Z,11.00
2023-03-11T20:26:42.817Z,8.37
2023-03-11T20:29:12.748Z,5.50
2023-03-11T20:31:41.316Z,4.80
2023-03-11T20:34:11.225Z,5.50
2023-03-11T20:36:39.693Z,4.63
2023-03-11T20:39:10.669Z,5.07
2023-03-11T20:41:42.221Z,4.47
2023-03-11T20:44:14.600Z,3.60
2023-03-11T20:46:43.111Z,4.37
2023-03-11T20:49:11.618Z,4.70
2023-03-11T20:51:41.767Z,4.10
2023-03-11T20:54:11.929Z,4.63
2023-03-11T20:56:43.848Z,4.30
2023-03-11T20:59:14.661Z,3.80
2023-03-11T21:01:44.956Z,4.73
2023-03-11T21:04:15.919Z,4.00
2023-03-11T21:06:49.769Z,4.30
2023-03-11T21:09:19.274Z,4.20
2023-03-11T21:11:48.800Z,4.40
2023-03-11T21:14:19.505Z,4.10
2023-03-11T21:16:49.169Z,4.23
2023-03-11T21:19:17.488Z,4.50
2023-03-11T21:21:46.993Z,3.90
2023-03-11T21:24:15.655Z,3.70
2023-03-11T21:26:44.508Z,3.77
2023-03-11T21:29:14.056Z,4.20
2023-03-11T21:31:43.966Z,3.87
2023-03-11T21:34:14.952Z,3.90
2023-03-11T21:36:45.226Z,4.70
2023-03-11T21:39:14.942Z,5.10
2023-03-11T21:41:43.009Z,5.17
2023-03-11T21:44:11.408Z,4.40
2023-03-11T21:46:39.692Z,4.83
2023-03-11T21:49:12.776Z,4.87
2023-03-11T21:51:43.957Z,5.20
2023-03-11T21:54:12.696Z,5.10
2023-03-11T21:56:40.786Z,5.80
2023-03-11T21:59:11.898Z,4.67
2023-03-11T22:01:40.592Z,5.40
2023-03-11T22:04:18.095Z,5.57
2023-03-11T22:06:48.852Z,6.00
2023-03-11T22:09:17.015Z,6.10
2023-03-11T22:11:45.343Z,6.10
2023-03-11T22:14:13.406Z,5.57
2023-03-11T22:16:42.115Z,4.40
2023-03-11T22:19:11.241Z,4.87
2023-03-11T22:21:42.349Z,4.57
2023-03-11T22:24:10.978Z,5.37
2023-03-11T22:26:41.486Z,5.30
2023-03-11T22:29:12.992Z,5.20
2023-03-11T22:31:41.501Z,5.40
2023-03-11T22:34:09.425Z,4.53
2023-03-11T22:36:41.837Z,4.90
2023-03-11T22:39:09.732Z,4.73
2023-03-11T22:41:37.726Z,5.20
2023-03-11T22:44:06.276Z,5.30
2023-03-11T22:46:35.127Z,4.93
2023-03-11T22:49:04.525Z,5.10
2023-03-11T22:51:32.509Z,4.57
2023-03-11T22:54:01.850Z,5.03
2023-03-11T22:56:30.541Z,4.90
2023-03-11T22:58:59.767Z,4.30
2023-03-11T23:01:29.578Z,6.20
2023-03-11T23:03:58.794Z,4.10
2023-03-11T23:06:30.709Z,5.20
2023-03-11T23:08:59.081Z,4.93
2023-03-11T23:11:30.990Z,4.80
2023-03-11T23:14:00.398Z,4.63
2023-03-11T23:16:28.972Z,5.37
2023-03-11T23:18:57.184Z,4.53
2023-03-11T23:21:27.275Z,5.00
2023-03-11T23:23:57.345Z,6.83
2023-03-11T23:26:25.496Z,5.10
2023-03-11T23:28:55.410Z,4.37
2023-03-11T23:31:26.712Z,5.23
2023-03-11T23:33:55.439Z,6.77
2023-03-11T23:36:26.901Z,5.80
2023-03-11T23:38:56.296Z,5.33
2023-03-11T23:41:24.580Z,5.90
2023-03-11T23:43:54.493Z,5.10
2023-03-11T23:46:25.244Z,5.13
2023-03-11T23:48:53.330Z,5.87
2023-03-11T23:51:22.583Z,4.47
2023-03-11T23:53:50.939Z,5.33
2023-03-11T23:56:19.995Z,4.60
2023-03-11T23:58:47.875Z,5.20
